createdAt,value
2022-08-08T00:00:59.747Z,16.10
2022-08-08T00:03:31.999Z,15.70
2022-08-08T00:06:15.028Z,15.90
2022-08-08T00:09:18.197Z,16.10
2022-08-08T00:12:07.391Z,16.10
2022-08-08T00:14:58.711Z,16.10
2022-08-08T00:18:03.579Z,16.30
2022-08-08T00:21:01.414Z,16.20
2022-08-08T00:23:56.747Z,16.10
2022-08-08T00:26:49.292Z,15.70
2022-08-08T00:29:53.608Z,16.20
2022-08-08T00:32:36.085Z,15.70
2022-08-08T00:35:23.618Z,15.80
2022-08-08T00:38:01.737Z,15.70
2022-08-08T00:43:55.916Z,16.10
2022-08-08T00:46:56.856Z,15.80
2022-08-08T00:50:03.094Z,15.50
2022-08-08T00:52:59.724Z,16.10
2022-08-08T00:55:53.061Z,15.30
2022-08-08T00:58:40.101Z,14.90
2022-08-08T01:01:37.923Z,15.40
2022-08-08T01:04:33.789Z,15.40
2022-08-08T01:07:55.441Z,15.20
2022-08-08T01:10:52.343Z,15.30
2022-08-08T01:13:44.427Z,15.30
2022-08-08T01:16:21.776Z,15.40
2022-08-08T01:19:52.252Z,14.60
2022-08-08T01:22:37.832Z,15.60
2022-08-08T01:25:40.148Z,14.90
2022-08-08T01:28:18.116Z,15.10
2022-08-08T01:32:13.677Z,14.80
2022-08-08T01:34:59.369Z,15.40
2022-08-08T01:37:57.486Z,15.40
2022-08-08T01:40:28.304Z,15.60
2022-08-08T01:43:07.078Z,15.10
2022-08-08T01:48:35.551Z,14.70
2022-08-08T01:55:17.508Z,14.70
2022-08-08T01:58:04.007Z,14.90
2022-08-08T02:03:49.258Z,15.00
2022-08-08T02:06:57.196Z,15.20
2022-08-08T02:10:04.357Z,14.90
2022-08-08T02:12:48.963Z,14.90
2022-08-08T02:15:48.120Z,14.80
2022-08-08T02:18:43.991Z,14.50
2022-08-08T02:21:48.193Z,14.40
2022-08-08T02:24:27.742Z,14.90
2022-08-08T02:27:07.422Z,14.30
2022-08-08T02:30:04.341Z,14.70
2022-08-08T02:32:52.650Z,14.60
2022-08-08T02:35:28.316Z,14.30
2022-08-08T02:38:32.230Z,14.90
2022-08-08T02:41:58.813Z,15.30
2022-08-08T02:44:38.351Z,15.20
2022-08-08T02:50:41.554Z,15.30
2022-08-08T02:53:57.785Z,14.90
2022-08-08T02:56:58.384Z,14.80
2022-08-08T03:02:50.197Z,15.20
2022-08-08T03:05:45.384Z,14.90
2022-08-08T03:08:34.468Z,14.80
2022-08-08T03:11:13.778Z,15.40
2022-08-08T03:16:01.581Z,15.50
2022-08-08T03:17:39.508Z,14.90
2022-08-08T03:22:57.211Z,14.60
2022-08-08T03:25:35.940Z,14.60
2022-08-08T03:28:24.552Z,14.30
2022-08-08T03:31:13.564Z,15.70
2022-08-08T03:33:54.995Z,15.40
2022-08-08T03:36:28.061Z,14.90
2022-08-08T03:39:07.617Z,15.00
2022-08-08T03:42:28.316Z,15.10
2022-08-08T03:44:38.371Z,15.50
2022-08-08T03:47:19.182Z,15.70
2022-08-08T03:50:00.973Z,15.60
2022-08-08T03:52:31.783Z,15.30
2022-08-08T03:55:10.681Z,14.80
2022-08-08T04:06:09.559Z,15.60
2022-08-08T04:08:37.965Z,15.90
2022-08-08T04:11:11.102Z,15.60
2022-08-08T04:19:23.832Z,15.40
2022-08-08T04:26:58.814Z,15.70
2022-08-08T04:29:27.313Z,15.60
2022-08-08T04:31:58.394Z,15.80
2022-08-08T04:34:32.443Z,16.00
2022-08-08T04:37:14.424Z,16.10
2022-08-08T04:45:00.747Z,15.70
2022-08-08T04:47:27.692Z,15.50
2022-08-08T04:50:01.067Z,16.30
2022-08-08T04:52:34.373Z,15.60
2022-08-08T04:55:04.396Z,16.30
2022-08-08T04:57:34.355Z,16.20
2022-08-08T05:07:38.113Z,16.30
2022-08-08T05:13:00.292Z,16.40
2022-08-08T05:18:16.327Z,16.60
2022-08-08T05:20:50.486Z,16.00
2022-08-08T05:23:20.478Z,16.50
2022-08-08T05:28:56.377Z,17.30
2022-08-08T05:36:25.477Z,17.10
2022-08-08T05:38:57.268Z,17.00
2022-08-08T05:41:26.120Z,16.60
2022-08-08T05:44:04.920Z,17.50
2022-08-08T05:46:33.226Z,17.40
2022-08-08T05:49:01.465Z,17.40
2022-08-08T05:51:48.354Z,17.20
2022-08-08T05:54:26.839Z,17.50
2022-08-08T05:57:07.317Z,17.90
2022-08-08T06:00:00.866Z,17.60
2022-08-08T06:02:48.077Z,17.80
2022-08-08T06:05:35.716Z,18.00
2022-08-08T06:08:09.746Z,17.90
2022-08-08T06:10:49.613Z,18.30
2022-08-08T06:15:53.966Z,18.50
2022-08-08T06:18:25.383Z,19.00
2022-08-08T06:20:57.123Z,18.70
2022-08-08T06:23:49.030Z,19.10
2022-08-08T06:26:38.577Z,18.20
2022-08-08T06:29:02.673Z,18.20
2022-08-08T06:31:52.797Z,18.40
2022-08-08T06:34:42.469Z,18.70
2022-08-08T06:37:25.035Z,19.40
2022-08-08T06:39:57.592Z,18.80
2022-08-08T06:42:30.517Z,19.20
2022-08-08T06:44:57.459Z,19.00
2022-08-08T06:50:04.175Z,19.50
2022-08-08T06:52:32.422Z,19.70
2022-08-08T06:55:01.726Z,19.60
2022-08-08T06:57:29.405Z,19.50
2022-08-08T07:00:16.827Z,19.70
2022-08-08T07:03:00.623Z,19.50
2022-08-08T07:05:40.233Z,20.00
2022-08-08T07:08:18.411Z,19.70
2022-08-08T07:10:51.033Z,20.20
2022-08-08T07:13:20.048Z,20.10
2022-08-08T07:16:10.040Z,20.30
2022-08-08T07:19:12.586Z,21.00
2022-08-08T07:22:12.018Z,21.20
2022-08-08T07:27:16.764Z,22.40
2022-08-08T07:30:01.744Z,22.30
2022-08-08T07:32:34.023Z,23.30
2022-08-08T07:35:06.398Z,23.50
2022-08-08T07:37:55.882Z,23.80
2022-08-08T07:40:29.256Z,23.70
2022-08-08T07:43:01.239Z,24.30
2022-08-08T07:45:34.922Z,24.60
2022-08-08T07:48:15.092Z,25.00
2022-08-08T07:50:44.427Z,25.00
2022-08-08T07:53:52.489Z,24.60
2022-08-08T07:56:04.572Z,25.10
2022-08-08T07:58:32.266Z,25.40
2022-08-08T08:01:04.444Z,25.30
2022-08-08T08:03:51.388Z,25.40
2022-08-08T08:06:20.737Z,25.40
2022-08-08T08:09:09.152Z,25.40
2022-08-08T08:11:51.359Z,25.80
2022-08-08T08:14:29.675Z,25.80
2022-08-08T08:19:31.988Z,25.90
2022-08-08T08:24:46.588Z,26.50
2022-08-08T08:42:31.318Z,26.50
2022-08-08T08:45:20.813Z,26.50
2022-08-08T08:47:54.189Z,27.00
2022-08-08T08:50:32.746Z,27.10
2022-08-08T08:53:54.722Z,27.30
2022-08-08T08:55:56.110Z,27.30
2022-08-08T08:58:38.086Z,27.10
2022-08-08T09:01:09.870Z,27.60
2022-08-08T09:03:46.094Z,27.40
2022-08-08T09:06:28.853Z,27.20
2022-08-08T09:09:35.267Z,27.50
2022-08-08T09:12:09.698Z,27.50
2022-08-08T09:14:42.401Z,27.20
2022-08-08T09:17:17.915Z,27.40
2022-08-08T09:21:57.977Z,26.70
2022-08-08T09:22:37.872Z,26.70
2022-08-08T09:25:07.585Z,26.30
2022-08-08T09:27:55.457Z,26.80
2022-08-08T09:30:26.865Z,27.10
2022-08-08T09:33:11.970Z,27.10
2022-08-08T09:35:50.522Z,27.20
2022-08-08T09:38:54.072Z,26.70
2022-08-08T09:41:54.843Z,25.90
2022-08-08T09:44:34.191Z,25.70
2022-08-08T09:47:26.762Z,25.50
2022-08-08T09:50:01.407Z,25.50
2022-08-08T09:52:53.880Z,26.00
2022-08-08T09:55:51.561Z,26.40
2022-08-08T09:58:25.644Z,26.20
2022-08-08T10:00:59.201Z,26.20
2022-08-08T10:03:31.548Z,26.10
2022-08-08T10:05:59.624Z,25.90
2022-08-08T10:08:30.478Z,26.00
2022-08-08T10:11:01.912Z,26.30
2022-08-08T10:13:42.147Z,26.50
2022-08-08T10:16:10.028Z,26.20
2022-08-08T10:18:39.611Z,26.10
2022-08-08T10:21:25.292Z,26.30
2022-08-08T10:24:03.201Z,26.00
2022-08-08T10:26:57.091Z,26.20
2022-08-08T10:29:56.594Z,26.00
2022-08-08T10:32:32.581Z,26.40
2022-08-08T10:36:01.871Z,26.90
2022-08-08T10:38:07.863Z,28.30
2022-08-08T10:40:38.186Z,28.70
2022-08-08T10:43:06.531Z,29.50
2022-08-08T10:45:57.111Z,29.50
2022-08-08T10:48:37.375Z,30.30
2022-08-08T10:51:25.923Z,30.60
2022-08-08T10:54:00.022Z,29.80
2022-08-08T10:56:36.914Z,29.60
2022-08-08T10:59:14.114Z,30.40
2022-08-08T11:01:54.485Z,29.40
2022-08-08T11:04:29.582Z,30.00
2022-08-08T11:07:06.824Z,29.90
2022-08-08T11:09:34.374Z,30.50
2022-08-08T11:12:12.705Z,30.50
2022-08-08T11:15:00.099Z,31.30
2022-08-08T11:18:00.183Z,31.50
2022-08-08T11:20:27.354Z,30.90
2022-08-08T11:22:55.066Z,31.80
2022-08-08T11:25:52.304Z,31.70
2022-08-08T11:28:23.184Z,31.20
2022-08-08T11:30:54.759Z,31.40
2022-08-08T11:33:51.207Z,30.90
2022-08-08T11:36:15.180Z,31.80
2022-08-08T11:38:54.736Z,32.50
2022-08-08T11:41:27.935Z,33.00
2022-08-08T11:44:00.476Z,32.50
2022-08-08T11:46:31.344Z,32.50
2022-08-08T11:49:01.273Z,31.60
2022-08-08T11:51:40.321Z,31.00
2022-08-08T11:57:14.346Z,29.60
2022-08-08T12:00:07.374Z,30.00
2022-08-08T12:02:55.185Z,31.20
2022-08-08T12:05:36.215Z,31.70
2022-08-08T12:08:04.178Z,32.70
2022-08-08T12:10:32.269Z,31.90
2022-08-08T12:13:12.219Z,30.60
2022-08-08T12:15:49.181Z,29.90
2022-08-08T12:18:21.614Z,30.80
2022-08-08T12:20:54.213Z,30.90
2022-08-08T12:23:43.840Z,31.00
2022-08-08T12:26:35.903Z,31.00
2022-08-08T12:29:36.563Z,31.30
2022-08-08T12:32:19.788Z,31.30
2022-08-08T12:34:51.637Z,31.10
2022-08-08T12:37:40.240Z,31.00
2022-08-08T12:40:23.830Z,30.70
2022-08-08T12:42:52.879Z,31.00
2022-08-08T12:45:58.543Z,31.10
2022-08-08T12:48:38.150Z,30.50
2022-08-08T12:51:11.228Z,29.10
2022-08-08T12:53:57.568Z,29.50
2022-08-08T12:56:37.318Z,30.30
2022-08-08T12:59:18.145Z,30.30
2022-08-08T13:02:20.995Z,29.60
2022-08-08T13:04:51.351Z,29.70
2022-08-08T13:08:03.558Z,30.20
2022-08-08T13:10:11.178Z,30.40
2022-08-08T13:12:47.008Z,30.60
2022-08-08T13:15:17.121Z,30.80
2022-08-08T13:18:08.559Z,31.20
2022-08-08T13:23:31.267Z,31.20
2022-08-08T13:25:51.669Z,32.00
2022-08-08T13:28:32.362Z,31.60
2022-08-08T13:31:01.904Z,31.80
2022-08-08T13:33:42.153Z,31.80
2022-08-08T13:36:11.140Z,31.00
2022-08-08T13:38:39.965Z,29.80
2022-08-08T13:41:17.015Z,29.60
2022-08-08T13:43:49.969Z,29.60
2022-08-08T13:46:27.509Z,30.20
2022-08-08T13:49:12.157Z,30.60
2022-08-08T13:51:58.133Z,30.60
2022-08-08T13:54:31.185Z,29.20
2022-08-08T13:57:02.556Z,29.70
2022-08-08T13:59:32.814Z,30.50
2022-08-08T14:02:07.469Z,29.60
2022-08-08T14:04:35.467Z,30.30
2022-08-08T14:07:04.699Z,30.40
2022-08-08T14:10:05.289Z,30.90
2022-08-08T14:12:30.137Z,30.90
2022-08-08T14:14:57.589Z,31.10
2022-08-08T14:17:58.410Z,31.00
2022-08-08T14:20:14.811Z,31.20
2022-08-08T14:23:06.069Z,31.20
2022-08-08T14:26:19.837Z,31.00
2022-08-08T14:28:53.758Z,30.50
2022-08-08T14:31:23.914Z,30.40
2022-08-08T14:34:23.016Z,30.70
2022-08-08T14:36:53.492Z,31.10
2022-08-08T14:39:24.642Z,30.80
2022-08-08T14:42:03.459Z,31.00
2022-08-08T14:44:35.455Z,30.60
2022-08-08T14:50:05.959Z,29.60
2022-08-08T14:52:46.829Z,29.30
2022-08-08T14:55:14.523Z,29.20
2022-08-08T14:58:06.206Z,28.40
2022-08-08T15:00:32.441Z,28.30
2022-08-08T15:03:14.479Z,28.50
2022-08-08T15:08:35.107Z,29.30
2022-08-08T15:11:07.284Z,29.50
2022-08-08T15:13:41.028Z,29.30
2022-08-08T15:16:24.196Z,29.50
2022-08-08T15:18:51.779Z,29.50
2022-08-08T15:21:20.879Z,29.40
2022-08-08T15:23:51.353Z,29.30
2022-08-08T15:26:20.370Z,29.10
2022-08-08T15:28:53.146Z,28.70
2022-08-08T15:31:25.852Z,28.40
2022-08-08T15:34:28.855Z,27.80
2022-08-08T15:39:23.104Z,28.00
2022-08-08T15:41:51.276Z,27.90
2022-08-08T15:49:20.839Z,28.40
2022-08-08T15:51:49.968Z,28.40
2022-08-08T15:57:07.572Z,28.30
2022-08-08T16:00:26.209Z,28.00
2022-08-08T16:02:31.239Z,27.40
2022-08-08T16:05:00.147Z,27.30
2022-08-08T16:07:39.437Z,27.10
2022-08-08T16:13:07.843Z,26.70
2022-08-08T16:13:20.768Z,26.80
2022-08-08T16:15:58.597Z,26.90
2022-08-08T16:18:28.104Z,27.00
2022-08-08T16:21:00.584Z,27.00
2022-08-08T16:23:31.407Z,27.00
2022-08-08T16:31:07.492Z,26.60
2022-08-08T16:33:38.773Z,26.50
2022-08-08T16:36:09.933Z,26.30
2022-08-08T16:38:45.077Z,26.40
2022-08-08T16:43:50.845Z,25.80
2022-08-08T16:46:37.652Z,25.60
2022-08-08T16:49:09.582Z,25.40
2022-08-08T16:55:03.235Z,25.10
2022-08-08T16:55:06.677Z,25.30
2022-08-08T16:58:12.882Z,24.70
2022-08-08T17:00:08.938Z,24.60
2022-08-08T17:02:39.714Z,24.80
2022-08-08T17:05:08.600Z,24.70
2022-08-08T17:07:37.692Z,24.50
2022-08-08T17:10:09.706Z,24.50
2022-08-08T17:12:37.516Z,24.40
2022-08-08T17:15:17.672Z,24.20
2022-08-08T17:18:03.183Z,24.30
2022-08-08T17:20:39.731Z,24.10
2022-08-08T17:23:18.028Z,24.10
2022-08-08T17:25:55.579Z,24.10
2022-08-08T17:28:34.227Z,23.50
2022-08-08T17:31:43.114Z,23.70
2022-08-08T17:34:52.769Z,23.50
2022-08-08T17:36:55.094Z,23.40
2022-08-08T17:40:02.924Z,23.30
2022-08-08T17:42:13.666Z,23.30
2022-08-08T17:47:16.330Z,23.20
2022-08-08T17:49:52.622Z,23.10
2022-08-08T17:52:23.313Z,23.00
2022-08-08T17:54:52.029Z,23.00
2022-08-08T17:57:23.971Z,23.00
2022-08-08T18:04:58.704Z,22.50
2022-08-08T18:08:02.765Z,22.30
2022-08-08T18:12:45.851Z,22.10
2022-08-08T18:15:14.290Z,22.00
2022-08-08T18:18:09.250Z,21.80
2022-08-08T18:23:14.665Z,21.60
2022-08-08T18:25:45.305Z,21.70
2022-08-08T18:28:13.580Z,21.60
2022-08-08T18:30:42.666Z,21.30
2022-08-08T18:36:04.661Z,21.30
2022-08-08T18:38:34.142Z,21.20
2022-08-08T18:41:03.066Z,21.10
2022-08-08T18:43:37.762Z,21.00
2022-08-08T18:51:53.734Z,21.00
2022-08-08T18:54:22.672Z,20.80
2022-08-08T18:56:57.374Z,20.90
2022-08-08T18:59:24.777Z,21.00
2022-08-08T19:02:25.541Z,21.20
2022-08-08T19:07:23.147Z,21.00
2022-08-08T19:12:39.573Z,20.80
2022-08-08T19:15:11.943Z,20.60
2022-08-08T19:20:29.931Z,20.70
2022-08-08T19:26:01.534Z,20.40
2022-08-08T19:28:17.847Z,20.40
2022-08-08T19:33:52.326Z,20.20
2022-08-08T19:36:27.713Z,20.10
2022-08-08T19:38:56.395Z,20.30
2022-08-08T19:41:33.633Z,20.50
2022-08-08T19:44:04.073Z,20.50
2022-08-08T19:46:39.668Z,20.50
2022-08-08T19:49:06.624Z,20.60
2022-08-08T19:51:41.572Z,20.70
2022-08-08T19:54:11.581Z,20.50
2022-08-08T19:56:40.448Z,20.50
2022-08-08T19:59:12.908Z,20.40
2022-08-08T20:02:01.810Z,20.40
2022-08-08T20:04:30.896Z,20.50
2022-08-08T20:06:57.962Z,20.10
2022-08-08T20:09:32.722Z,20.10
2022-08-08T20:12:11.220Z,20.10
2022-08-08T20:14:42.043Z,20.20
2022-08-08T20:17:26.794Z,20.20
2022-08-08T20:19:55.219Z,20.10
2022-08-08T20:22:30.697Z,20.00
2022-08-08T20:25:00.233Z,20.10
2022-08-08T20:27:27.501Z,20.00
2022-08-08T20:30:52.781Z,19.90
2022-08-08T20:32:59.327Z,20.00
2022-08-08T20:35:57.058Z,19.80
2022-08-08T20:40:47.516Z,19.70
2022-08-08T20:43:43.115Z,19.70
2022-08-08T20:46:05.129Z,19.70
2022-08-08T20:51:05.594Z,19.60
2022-08-08T20:59:08.851Z,19.50
2022-08-08T21:01:44.184Z,19.30
2022-08-08T21:04:27.353Z,19.30
2022-08-08T21:06:55.552Z,19.00
2022-08-08T21:09:22.962Z,19.20
2022-08-08T21:11:53.656Z,19.20
2022-08-08T21:14:34.430Z,19.10
2022-08-08T21:17:06.030Z,19.00
2022-08-08T21:19:45.522Z,19.00
2022-08-08T21:22:14.085Z,18.80
2022-08-08T21:24:41.814Z,18.90
2022-08-08T21:28:05.973Z,19.00
2022-08-08T21:30:16.466Z,19.10
2022-08-08T21:36:13.857Z,19.00
2022-08-08T21:40:54.755Z,18.90
2022-08-08T21:43:25.537Z,18.70
2022-08-08T21:54:17.693Z,18.40
2022-08-08T21:54:23.065Z,18.50
2022-08-08T21:56:59.579Z,18.40
2022-08-08T21:59:43.924Z,18.60
2022-08-08T22:04:43.269Z,18.70
2022-08-08T22:07:10.577Z,18.60
2022-08-08T22:09:40.954Z,18.70
2022-08-08T22:12:17.126Z,18.80
2022-08-08T22:14:47.401Z,18.60
2022-08-08T22:17:18.440Z,18.70
2022-08-08T22:20:12.554Z,18.70
2022-08-08T22:25:17.798Z,18.70
2022-08-08T22:28:02.489Z,18.60
2022-08-08T22:30:32.142Z,18.50
2022-08-08T22:33:01.311Z,18.50
2022-08-08T22:36:04.386Z,18.20
2022-08-08T22:38:17.449Z,18.30
2022-08-08T22:40:45.586Z,18.20
2022-08-08T22:43:17.115Z,18.40
2022-08-08T22:45:46.726Z,18.20
2022-08-08T22:48:21.620Z,18.20
2022-08-08T22:54:31.732Z,18.10
2022-08-08T22:56:03.824Z,17.60
2022-08-08T22:58:33.046Z,17.90
2022-08-08T23:01:30.582Z,17.70
2022-08-08T23:03:55.556Z,17.80
2022-08-08T23:06:26.952Z,17.90
2022-08-08T23:08:59.057Z,18.00
2022-08-08T23:11:30.808Z,17.90
2022-08-08T23:14:21.172Z,18.10
2022-08-08T23:16:57.451Z,18.30
2022-08-08T23:19:25.379Z,17.90
2022-08-08T23:21:52.515Z,17.80
2022-08-08T23:24:22.208Z,17.60
2022-08-08T23:29:25.562Z,17.50
2022-08-08T23:31:55.437Z,17.80
2022-08-08T23:34:22.420Z,17.70
2022-08-08T23:36:56.941Z,17.70
2022-08-08T23:39:26.601Z,17.60
2022-08-08T23:42:01.730Z,17.70
2022-08-08T23:44:28.855Z,17.50
2022-08-08T23:50:02.919Z,17.50
2022-08-08T23:52:32.815Z,17.20
2022-08-08T23:55:14.162Z,17.40
2022-08-08T23:57:52.955Z,17.40
